createdAt,value
2018-12-31T00:01:58.147Z,9.40
2018-12-31T00:04:26.598Z,9.40
2018-12-31T00:06:55.019Z,9.40
2018-12-31T00:09:23.466Z,9.40
2018-12-31T00:11:51.894Z,9.50
2018-12-31T00:14:20.440Z,9.50
2018-12-31T00:16:48.942Z,9.50
2018-12-31T00:19:17.461Z,9.40
2018-12-31T00:21:45.941Z,9.50
2018-12-31T00:24:14.454Z,9.40
2018-12-31T00:26:42.971Z,9.40
2018-12-31T00:29:11.494Z,9.40
2018-12-31T00:31:59.267Z,9.20
2018-12-31T00:34:27.795Z,9.20
2018-12-31T00:36:56.238Z,9.20
2018-12-31T00:39:24.681Z,9.20
2018-12-31T00:41:53.112Z,9.30
2018-12-31T00:44:21.603Z,9.20
2018-12-31T00:46:50.235Z,9.20
2018-12-31T00:49:18.755Z,9.20
2018-12-31T00:51:47.307Z,9.30
2018-12-31T00:54:15.815Z,9.40
2018-12-31T00:56:44.286Z,9.50
2018-12-31T00:59:12.710Z,9.50
2018-12-31T01:01:41.165Z,9.50
2018-12-31T01:04:09.594Z,9.50
2018-12-31T01:06:38.069Z,9.50
2018-12-31T01:09:07.890Z,9.50
2018-12-31T01:11:36.503Z,9.30
2018-12-31T01:14:05.055Z,9.40
2018-12-31T01:16:33.498Z,9.40
2018-12-31T01:19:01.927Z,9.50
2018-12-31T01:21:30.378Z,9.50
2018-12-31T01:23:58.812Z,9.40
2018-12-31T01:26:27.330Z,9.30
2018-12-31T01:28:55.858Z,9.50
2018-12-31T01:31:24.307Z,9.40
2018-12-31T01:33:52.894Z,9.40
2018-12-31T01:36:21.446Z,9.40
2018-12-31T01:38:49.954Z,9.50
2018-12-31T01:41:18.418Z,9.50
2018-12-31T01:43:46.926Z,9.60
2018-12-31T01:46:15.384Z,9.60
2018-12-31T01:48:43.856Z,9.60
2018-12-31T01:51:12.463Z,9.60
2018-12-31T01:53:41.326Z,9.70
2018-12-31T01:56:09.802Z,9.70
2018-12-31T01:58:38.230Z,9.70
2018-12-31T02:01:06.774Z,9.70
2018-12-31T02:03:35.202Z,9.80
2018-12-31T02:06:03.630Z,9.80
2018-12-31T02:08:32.086Z,9.80
2018-12-31T02:11:00.511Z,9.80
2018-12-31T02:13:28.955Z,9.80
2018-12-31T02:15:57.483Z,9.70
2018-12-31T02:18:25.954Z,9.70
2018-12-31T02:20:54.378Z,9.60
2018-12-31T02:23:22.864Z,9.40
2018-12-31T02:25:51.307Z,9.40
2018-12-31T02:28:19.880Z,9.30
2018-12-31T02:30:48.655Z,9.40
2018-12-31T02:33:17.108Z,9.50
2018-12-31T02:35:45.541Z,9.60
2018-12-31T02:38:14.009Z,9.60
2018-12-31T02:40:42.466Z,9.60
2018-12-31T02:43:11.045Z,9.60
2018-12-31T02:45:39.577Z,9.70
2018-12-31T02:48:08.026Z,9.60
2018-12-31T02:50:37.132Z,9.60
2018-12-31T02:53:05.576Z,9.70
2018-12-31T02:55:34.019Z,9.60
2018-12-31T02:58:02.474Z,9.70
2018-12-31T03:00:31.074Z,9.70
2018-12-31T03:02:59.559Z,9.70
2018-12-31T03:05:28.047Z,9.70
2018-12-31T03:07:56.562Z,9.60
2018-12-31T03:10:25.010Z,9.60
2018-12-31T03:12:53.618Z,9.60
2018-12-31T03:15:22.210Z,9.60
2018-12-31T03:17:50.736Z,9.60
2018-12-31T03:20:19.237Z,9.70
2018-12-31T03:22:48.007Z,9.70
2018-12-31T03:25:16.556Z,9.60
2018-12-31T03:28:04.383Z,9.70
2018-12-31T03:30:32.831Z,9.70
2018-12-31T03:33:01.255Z,9.80
2018-12-31T03:35:29.703Z,9.80
2018-12-31T03:37:58.225Z,9.70
2018-12-31T03:40:26.923Z,9.70
2018-12-31T03:42:56.046Z,9.80
2018-12-31T03:45:24.600Z,9.80
2018-12-31T03:47:53.083Z,9.70
2018-12-31T03:50:21.535Z,9.60
2018-12-31T03:52:49.972Z,9.50
2018-12-31T03:55:18.528Z,9.40
2018-12-31T03:57:46.950Z,9.40
2018-12-31T04:00:15.392Z,9.50
2018-12-31T04:02:43.882Z,9.50
2018-12-31T04:05:12.355Z,9.50
2018-12-31T04:07:40.840Z,9.60
2018-12-31T04:10:09.358Z,9.60
2018-12-31T04:12:37.801Z,9.60
2018-12-31T04:15:06.423Z,9.60
2018-12-31T04:17:34.848Z,9.60
2018-12-31T04:20:03.359Z,9.70
2018-12-31T04:22:32.165Z,9.70
2018-12-31T04:25:00.618Z,9.70
2018-12-31T04:27:29.061Z,9.80
2018-12-31T04:29:57.501Z,9.80
2018-12-31T04:32:26.074Z,9.90
2018-12-31T04:34:54.509Z,9.90
2018-12-31T04:37:22.946Z,9.90
2018-12-31T04:39:51.376Z,9.80
2018-12-31T04:42:19.846Z,9.90
2018-12-31T04:44:48.334Z,9.80
2018-12-31T04:47:16.795Z,9.80
2018-12-31T04:49:45.224Z,9.80
2018-12-31T04:52:13.679Z,9.70
2018-12-31T04:55:01.540Z,9.80
2018-12-31T04:57:30.051Z,9.80
2018-12-31T04:59:58.484Z,9.60
2018-12-31T05:02:26.929Z,9.50
2018-12-31T05:04:55.687Z,9.30
2018-12-31T05:07:24.217Z,9.30
2018-12-31T05:09:52.733Z,9.30
2018-12-31T05:12:21.179Z,9.20
2018-12-31T05:14:49.902Z,9.20
2018-12-31T05:17:18.411Z,9.10
2018-12-31T05:19:46.964Z,9.10
2018-12-31T05:22:15.735Z,9.20
2018-12-31T05:24:44.234Z,9.20
2018-12-31T05:27:12.758Z,9.20
2018-12-31T05:29:41.194Z,9.20
2018-12-31T05:32:09.638Z,9.20
2018-12-31T05:34:38.127Z,9.20
2018-12-31T05:37:06.630Z,9.10
2018-12-31T05:39:35.054Z,9.10
2018-12-31T05:42:03.506Z,9.20
2018-12-31T05:44:31.931Z,9.30
2018-12-31T05:47:00.419Z,9.20
2018-12-31T05:49:28.943Z,9.20
2018-12-31T05:51:57.360Z,9.20
2018-12-31T05:54:25.802Z,9.30
2018-12-31T05:56:54.231Z,9.40
2018-12-31T05:59:22.737Z,9.40
2018-12-31T06:01:51.163Z,9.50
2018-12-31T06:04:19.776Z,9.50
2018-12-31T06:06:48.206Z,9.60
2018-12-31T06:09:16.643Z,9.60
2018-12-31T06:11:45.070Z,9.60
2018-12-31T06:14:13.520Z,9.70
2018-12-31T06:16:41.976Z,9.80
2018-12-31T06:19:10.525Z,9.90
2018-12-31T06:21:38.951Z,9.90
2018-12-31T06:24:07.398Z,9.80
2018-12-31T06:26:35.830Z,9.90
2018-12-31T06:29:04.306Z,9.90
2018-12-31T06:31:32.731Z,9.90
2018-12-31T06:34:01.386Z,9.90
2018-12-31T06:36:29.810Z,9.90
2018-12-31T06:38:58.354Z,9.90
2018-12-31T06:41:27.258Z,9.80
2018-12-31T06:43:55.702Z,9.80
2018-12-31T06:46:24.130Z,9.90
2018-12-31T06:48:52.577Z,10.00
2018-12-31T06:51:21.086Z,10.00
2018-12-31T06:53:49.637Z,10.00
2018-12-31T06:56:18.140Z,10.00
2018-12-31T06:58:46.579Z,10.00
2018-12-31T07:01:15.099Z,10.00
2018-12-31T07:04:04.721Z,9.90
2018-12-31T07:06:33.041Z,9.90
2018-12-31T07:09:01.597Z,9.90
2018-12-31T07:11:30.093Z,9.90
2018-12-31T07:14:01.521Z,10.00
2018-12-31T07:16:30.085Z,10.10
2018-12-31T07:18:58.553Z,10.10
2018-12-31T07:21:27.318Z,10.00
2018-12-31T07:23:55.845Z,9.90
2018-12-31T07:26:24.552Z,9.90
2018-12-31T07:28:52.979Z,10.00
2018-12-31T07:31:21.449Z,10.00
2018-12-31T07:33:49.876Z,10.00
2018-12-31T07:36:18.379Z,10.00
2018-12-31T07:38:46.811Z,10.10
2018-12-31T07:41:15.270Z,10.10
2018-12-31T07:43:43.697Z,10.10
2018-12-31T07:46:12.282Z,10.10
2018-12-31T07:48:41.485Z,10.20
2018-12-31T07:51:10.038Z,10.20
2018-12-31T07:53:38.520Z,10.10
2018-12-31T07:56:07.025Z,10.10
2018-12-31T07:58:35.458Z,10.10
2018-12-31T08:01:03.906Z,10.20
2018-12-31T08:03:32.342Z,10.10
2018-12-31T08:06:00.961Z,10.10
2018-12-31T08:08:30.937Z,10.10
2018-12-31T08:10:59.487Z,10.10
2018-12-31T08:13:28.064Z,10.10
2018-12-31T08:15:56.518Z,10.20
2018-12-31T08:18:24.970Z,10.30
2018-12-31T08:20:53.488Z,10.30
2018-12-31T08:23:21.935Z,10.30
2018-12-31T08:25:50.389Z,10.20
2018-12-31T08:28:18.815Z,10.10
2018-12-31T08:30:47.318Z,10.10
2018-12-31T08:33:15.851Z,10.10
2018-12-31T08:35:44.285Z,10.10
2018-12-31T08:38:12.982Z,10.10
2018-12-31T08:40:41.464Z,10.20
2018-12-31T08:43:10.087Z,10.30
2018-12-31T08:45:38.684Z,10.30
2018-12-31T08:48:07.407Z,10.30
2018-12-31T08:50:35.834Z,10.30
2018-12-31T08:53:04.469Z,10.40
2018-12-31T08:55:32.964Z,10.50
2018-12-31T08:58:01.424Z,10.50
2018-12-31T09:00:30.006Z,10.30
2018-12-31T09:02:58.538Z,10.20
2018-12-31T09:05:26.976Z,10.20
2018-12-31T09:07:55.506Z,10.10
2018-12-31T09:10:23.947Z,10.20
2018-12-31T09:12:52.418Z,10.20
2018-12-31T09:15:20.934Z,10.30
2018-12-31T09:17:49.466Z,10.30
2018-12-31T09:20:17.899Z,10.30
2018-12-31T09:22:46.383Z,10.30
2018-12-31T09:25:14.819Z,10.30
2018-12-31T09:27:43.294Z,10.30
2018-12-31T09:30:11.725Z,10.20
2018-12-31T09:32:40.166Z,10.30
2018-12-31T09:35:09.134Z,10.40
2018-12-31T09:37:37.646Z,10.40
2018-12-31T09:40:06.258Z,10.40
2018-12-31T09:42:34.954Z,10.50
2018-12-31T09:45:03.443Z,10.60
2018-12-31T09:47:33.821Z,10.70
2018-12-31T09:50:02.279Z,10.70
2018-12-31T09:52:30.778Z,10.70
2018-12-31T09:54:59.314Z,10.70
2018-12-31T09:57:27.834Z,10.80
2018-12-31T09:59:56.377Z,10.90
2018-12-31T10:02:24.874Z,11.00
2018-12-31T10:04:53.331Z,11.00
2018-12-31T10:07:21.777Z,11.00
2018-12-31T10:09:50.297Z,10.90
2018-12-31T10:12:18.736Z,10.90
2018-12-31T10:14:47.194Z,10.90
2018-12-31T10:17:15.628Z,10.90
2018-12-31T10:19:44.079Z,10.90
2018-12-31T10:22:12.512Z,11.00
2018-12-31T10:24:40.984Z,11.00
2018-12-31T10:27:09.415Z,11.10
2018-12-31T10:29:37.934Z,11.10
2018-12-31T10:32:06.702Z,11.10
2018-12-31T10:34:35.187Z,11.10
2018-12-31T10:37:03.950Z,11.20
2018-12-31T10:39:32.387Z,11.20
2018-12-31T10:42:01.005Z,11.30
2018-12-31T10:44:29.780Z,11.30
2018-12-31T10:46:59.417Z,11.40
2018-12-31T10:49:28.466Z,11.50
2018-12-31T10:51:57.027Z,11.40
2018-12-31T10:54:25.481Z,11.40
2018-12-31T10:56:53.904Z,11.40
2018-12-31T10:59:22.335Z,11.40
2018-12-31T11:01:51.278Z,11.50
2018-12-31T11:04:19.716Z,11.50
2018-12-31T11:06:48.165Z,11.40
2018-12-31T11:09:16.593Z,11.30
2018-12-31T11:11:45.482Z,11.40
2018-12-31T11:14:15.269Z,11.40
2018-12-31T11:16:43.901Z,11.40
2018-12-31T11:19:12.419Z,11.50
2018-12-31T11:21:40.912Z,11.60
2018-12-31T11:24:12.813Z,11.60
2018-12-31T11:26:41.422Z,11.70
2018-12-31T11:29:09.853Z,11.70
2018-12-31T11:31:38.346Z,11.80
2018-12-31T11:34:06.825Z,11.70
2018-12-31T11:36:35.534Z,11.70
2018-12-31T11:39:20.038Z,11.70
2018-12-31T11:41:48.514Z,11.80
2018-12-31T11:44:16.978Z,11.70
2018-12-31T11:46:45.664Z,11.60
2018-12-31T11:49:14.226Z,11.60
2018-12-31T11:51:44.302Z,11.50
2018-12-31T11:54:12.750Z,11.40
2018-12-31T11:56:41.179Z,11.40
2018-12-31T11:59:09.710Z,11.40
2018-12-31T12:01:38.247Z,11.40
2018-12-31T12:04:06.948Z,11.50
2018-12-31T12:06:35.644Z,11.50
2018-12-31T12:09:07.335Z,11.50
2018-12-31T12:11:35.933Z,11.50
2018-12-31T12:14:04.780Z,11.60
2018-12-31T12:16:33.409Z,11.60
2018-12-31T12:19:02.259Z,11.60
2018-12-31T12:21:30.695Z,11.50
2018-12-31T12:23:59.229Z,11.70
2018-12-31T12:26:27.734Z,11.70
2018-12-31T12:28:56.327Z,11.80
2018-12-31T12:31:24.829Z,11.70
2018-12-31T12:33:53.423Z,11.70
2018-12-31T12:36:21.932Z,11.70
2018-12-31T12:38:50.411Z,11.80
2018-12-31T12:41:18.955Z,11.80
2018-12-31T12:43:47.561Z,11.90
2018-12-31T12:46:16.307Z,12.00
2018-12-31T12:48:44.938Z,12.10
2018-12-31T12:51:13.413Z,12.30
2018-12-31T12:53:42.300Z,12.40
2018-12-31T12:56:10.845Z,12.50
2018-12-31T12:58:39.650Z,12.60
2018-12-31T13:01:08.234Z,12.70
2018-12-31T13:03:36.754Z,12.70
2018-12-31T13:06:05.463Z,12.70
2018-12-31T13:08:34.004Z,12.80
2018-12-31T13:11:02.875Z,12.80
2018-12-31T13:13:31.458Z,12.80
2018-12-31T13:16:00.006Z,12.80
2018-12-31T13:18:28.510Z,12.80
2018-12-31T13:20:56.975Z,12.80
2018-12-31T13:23:26.274Z,12.70
2018-12-31T13:25:54.833Z,12.70
2018-12-31T13:28:23.328Z,12.80
2018-12-31T13:30:51.850Z,12.70
2018-12-31T13:33:20.469Z,12.70
2018-12-31T13:35:49.387Z,12.70
2018-12-31T13:38:17.862Z,12.70
2018-12-31T13:40:46.663Z,12.60
2018-12-31T13:43:15.102Z,12.60
2018-12-31T13:45:43.711Z,12.60
2018-12-31T13:48:12.166Z,12.50
2018-12-31T13:50:41.023Z,12.40
2018-12-31T13:53:09.481Z,12.30
2018-12-31T13:55:37.946Z,12.30
2018-12-31T13:58:06.466Z,12.30
2018-12-31T14:00:34.934Z,12.40
2018-12-31T14:03:03.626Z,12.40
2018-12-31T14:05:32.126Z,12.40
2018-12-31T14:08:00.571Z,12.40
2018-12-31T14:10:29.125Z,12.30
2018-12-31T14:12:57.646Z,12.30
2018-12-31T14:15:28.687Z,12.30
2018-12-31T14:17:57.221Z,12.30
2018-12-31T14:20:25.912Z,12.30
2018-12-31T14:22:54.453Z,12.30
2018-12-31T14:25:22.964Z,12.20
2018-12-31T14:27:51.576Z,12.20
2018-12-31T14:30:20.018Z,12.20
2018-12-31T14:32:48.547Z,12.10
2018-12-31T14:35:17.008Z,12.10
2018-12-31T14:37:46.345Z,12.00
2018-12-31T14:40:14.981Z,12.00
2018-12-31T14:42:43.605Z,11.90
2018-12-31T14:45:12.211Z,12.00
2018-12-31T14:47:40.791Z,11.90
2018-12-31T14:50:09.409Z,12.00
2018-12-31T14:52:37.933Z,11.90
2018-12-31T14:55:06.477Z,11.80
2018-12-31T14:57:35.342Z,11.80
2018-12-31T15:00:05.859Z,11.90
2018-12-31T15:02:35.168Z,11.90
2018-12-31T15:05:04.281Z,11.90
2018-12-31T15:07:33.194Z,12.00
2018-12-31T15:10:01.701Z,12.10
2018-12-31T15:12:30.228Z,12.00
2018-12-31T15:14:58.735Z,12.10
2018-12-31T15:17:27.357Z,12.00
2018-12-31T15:19:55.855Z,12.10
2018-12-31T15:22:28.989Z,12.00
2018-12-31T15:24:54.517Z,12.00
2018-12-31T15:27:22.974Z,12.00
2018-12-31T15:29:51.546Z,12.00
2018-12-31T15:32:20.080Z,11.90
2018-12-31T15:34:48.666Z,11.90
2018-12-31T15:37:17.191Z,11.90
2018-12-31T15:39:45.674Z,11.90
2018-12-31T15:42:14.412Z,11.80
2018-12-31T15:44:42.914Z,11.80
2018-12-31T15:47:11.406Z,11.80
2018-12-31T15:49:40.267Z,11.80
2018-12-31T15:52:08.895Z,11.80
2018-12-31T15:54:37.622Z,11.80
2018-12-31T15:57:06.750Z,11.80
2018-12-31T15:59:35.248Z,11.90
2018-12-31T16:02:04.216Z,11.90
2018-12-31T16:04:32.698Z,11.80
2018-12-31T16:07:01.221Z,11.80
2018-12-31T16:09:30.030Z,11.70
2018-12-31T16:11:58.491Z,11.70
2018-12-31T16:14:27.066Z,11.70
2018-12-31T16:16:55.608Z,11.70
2018-12-31T16:19:24.098Z,11.60
2018-12-31T16:21:52.957Z,11.60
2018-12-31T16:24:21.865Z,11.60
2018-12-31T16:26:50.446Z,11.60
2018-12-31T16:29:18.912Z,11.60
2018-12-31T16:31:47.426Z,11.60
2018-12-31T16:34:15.936Z,11.60
2018-12-31T16:36:44.435Z,11.60
2018-12-31T16:39:13.089Z,11.60
2018-12-31T16:41:41.626Z,11.60
2018-12-31T16:44:10.277Z,11.70
2018-12-31T16:46:39.110Z,11.60
2018-12-31T16:49:08.124Z,11.60
2018-12-31T16:51:37.301Z,11.50
2018-12-31T16:54:05.876Z,11.60
2018-12-31T16:56:34.493Z,11.50
2018-12-31T16:59:03.201Z,11.50
2018-12-31T17:01:31.738Z,11.50
2018-12-31T17:04:00.237Z,11.30
2018-12-31T17:06:28.682Z,11.20
2018-12-31T17:08:57.249Z,11.20
2018-12-31T17:11:25.838Z,11.20
2018-12-31T17:13:54.554Z,11.30
2018-12-31T17:16:23.019Z,11.20
2018-12-31T17:18:51.576Z,11.30
2018-12-31T17:21:20.089Z,11.30
2018-12-31T17:23:48.622Z,11.30
2018-12-31T17:26:17.339Z,11.30
2018-12-31T17:28:45.964Z,11.30
2018-12-31T17:31:14.402Z,11.40
2018-12-31T17:33:42.939Z,11.40
2018-12-31T17:36:11.635Z,11.40
2018-12-31T17:38:40.530Z,11.30
2018-12-31T17:41:08.984Z,11.30
2018-12-31T17:43:40.153Z,11.30
2018-12-31T17:46:08.858Z,11.30
2018-12-31T17:48:37.290Z,11.30
2018-12-31T17:51:06.130Z,11.30
2018-12-31T17:53:34.649Z,11.40
2018-12-31T17:56:03.450Z,11.40
2018-12-31T17:58:32.266Z,11.40
2018-12-31T18:01:00.722Z,11.30
2018-12-31T18:03:29.278Z,11.40
2018-12-31T18:05:57.818Z,11.40
2018-12-31T18:08:26.330Z,11.50
2018-12-31T18:10:55.152Z,11.40
2018-12-31T18:13:23.610Z,11.40
2018-12-31T18:15:52.149Z,11.30
2018-12-31T18:18:20.654Z,11.30
2018-12-31T18:20:49.126Z,11.30
2018-12-31T18:23:17.638Z,11.30
2018-12-31T18:25:46.097Z,11.40
2018-12-31T18:28:14.618Z,11.50
2018-12-31T18:30:43.597Z,11.50
2018-12-31T18:33:12.123Z,11.50
2018-12-31T18:35:40.678Z,11.60
2018-12-31T18:38:09.209Z,11.50
2018-12-31T18:40:37.715Z,11.60
2018-12-31T18:43:06.818Z,11.50
2018-12-31T18:45:35.487Z,11.30
2018-12-31T18:48:04.031Z,11.20
2018-12-31T18:50:32.623Z,11.20
2018-12-31T18:53:01.209Z,11.20
2018-12-31T18:55:29.655Z,11.20
2018-12-31T18:57:58.199Z,11.20
2018-12-31T19:00:26.697Z,11.20
2018-12-31T19:02:55.591Z,11.20
2018-12-31T19:05:24.099Z,11.20
2018-12-31T19:07:52.555Z,11.30
2018-12-31T19:10:21.556Z,11.20
2018-12-31T19:12:50.003Z,11.10
2018-12-31T19:15:18.494Z,11.20
2018-12-31T19:17:47.048Z,11.20
2018-12-31T19:20:15.533Z,11.20
2018-12-31T19:22:44.358Z,11.20
2018-12-31T19:25:13.145Z,11.30
2018-12-31T19:27:41.594Z,11.30
2018-12-31T19:30:10.020Z,11.30
2018-12-31T19:32:38.479Z,11.20
2018-12-31T19:35:07.006Z,11.10
2018-12-31T19:37:35.479Z,11.10
2018-12-31T19:40:05.463Z,11.10
2018-12-31T19:42:33.976Z,11.20
2018-12-31T19:45:02.421Z,11.20
2018-12-31T19:47:30.939Z,11.10
2018-12-31T19:49:59.370Z,11.10
2018-12-31T19:52:27.797Z,11.10
2018-12-31T19:54:58.422Z,11.10
2018-12-31T19:57:26.429Z,11.10
2018-12-31T19:59:54.933Z,11.20
2018-12-31T20:02:23.665Z,11.20
2018-12-31T20:04:52.136Z,11.20
2018-12-31T20:07:20.569Z,11.20
2018-12-31T20:09:49.119Z,11.20
2018-12-31T20:12:17.559Z,11.10
2018-12-31T20:14:46.470Z,11.20
2018-12-31T20:17:14.891Z,11.30
2018-12-31T20:19:43.345Z,11.20
2018-12-31T20:22:11.876Z,11.20
2018-12-31T20:24:40.485Z,11.20
2018-12-31T20:27:09.334Z,11.20
2018-12-31T20:29:38.239Z,11.10
2018-12-31T20:32:06.684Z,10.90
2018-12-31T20:34:35.225Z,10.90
2018-12-31T20:37:03.733Z,10.90
2018-12-31T20:39:32.275Z,10.90
2018-12-31T20:42:00.701Z,10.90
2018-12-31T20:44:29.521Z,10.90
2018-12-31T20:46:58.033Z,10.90
2018-12-31T20:49:28.293Z,11.00
2018-12-31T20:51:56.986Z,11.00
2018-12-31T20:54:25.493Z,11.10
2018-12-31T20:56:54.426Z,11.10
2018-12-31T20:59:22.874Z,11.10
2018-12-31T21:01:51.314Z,11.20
2018-12-31T21:04:19.759Z,11.20
2018-12-31T21:06:48.317Z,11.20
2018-12-31T21:09:16.811Z,11.10
2018-12-31T21:11:45.415Z,11.20
2018-12-31T21:14:13.988Z,11.20
2018-12-31T21:16:42.524Z,11.20
2018-12-31T21:19:10.978Z,11.20
2018-12-31T21:21:39.506Z,11.30
2018-12-31T21:24:08.182Z,11.30
2018-12-31T21:26:38.300Z,11.30
2018-12-31T21:29:06.896Z,11.20
2018-12-31T21:31:35.515Z,11.20
2018-12-31T21:34:04.048Z,11.20
2018-12-31T21:36:32.982Z,11.20
2018-12-31T21:39:01.500Z,11.20
2018-12-31T21:41:30.210Z,11.20
2018-12-31T21:43:58.714Z,11.20
2018-12-31T21:46:27.186Z,11.20
2018-12-31T21:48:55.689Z,11.20
2018-12-31T21:51:24.239Z,11.10
2018-12-31T21:53:52.733Z,11.10
2018-12-31T21:56:21.303Z,11.00
2018-12-31T21:58:49.747Z,11.00
2018-12-31T22:01:18.304Z,11.00
2018-12-31T22:03:47.219Z,10.90
2018-12-31T22:06:15.760Z,10.90
2018-12-31T22:08:44.231Z,11.00
2018-12-31T22:11:12.742Z,11.00
2018-12-31T22:13:41.353Z,11.10
2018-12-31T22:16:09.823Z,11.10
2018-12-31T22:18:38.333Z,11.10
2018-12-31T22:21:06.787Z,11.10
2018-12-31T22:23:35.224Z,11.20
2018-12-31T22:26:03.675Z,11.20
2018-12-31T22:28:32.828Z,11.10
2018-12-31T22:31:01.346Z,11.20
2018-12-31T22:33:29.789Z,11.20
2018-12-31T22:35:58.317Z,11.10
2018-12-31T22:38:26.748Z,11.10
2018-12-31T22:40:55.186Z,11.00
2018-12-31T22:43:24.002Z,11.00
2018-12-31T22:45:52.529Z,11.00
2018-12-31T22:48:20.954Z,11.00
2018-12-31T22:50:49.558Z,11.00
2018-12-31T22:53:18.075Z,11.00
2018-12-31T22:55:46.511Z,11.00
2018-12-31T22:58:14.989Z,11.10
2018-12-31T23:00:43.778Z,11.00
2018-12-31T23:03:12.306Z,10.90
2018-12-31T23:05:40.819Z,10.90
2018-12-31T23:08:09.265Z,10.90
2018-12-31T23:10:38.263Z,10.90
2018-12-31T23:13:06.782Z,10.90
2018-12-31T23:15:35.219Z,10.90
2018-12-31T23:18:03.689Z,10.90
2018-12-31T23:20:32.128Z,10.90
2018-12-31T23:23:00.954Z,11.00
2018-12-31T23:25:29.454Z,11.00
2018-12-31T23:27:57.921Z,11.10
2018-12-31T23:30:26.441Z,11.10
2018-12-31T23:32:54.959Z,11.20
2018-12-31T23:35:23.405Z,11.20
2018-12-31T23:37:52.015Z,11.20
2018-12-31T23:40:20.646Z,11.30
2018-12-31T23:42:49.106Z,11.30
2018-12-31T23:45:17.549Z,11.20
2018-12-31T23:47:46.032Z,11.30
2018-12-31T23:50:14.563Z,11.20
2018-12-31T23:52:43.034Z,11.20
2018-12-31T23:55:11.470Z,11.20
2018-12-31T23:57:40.763Z,11.10
